Terminal Aerodrome Forecast
Issued by NWS

Home | Current Version | Previous Version | Text Only | Print | Product List | Glossary On
Versions: 1 2 3 4 5 6 7 8 9 10 11 12 13
962
FTUS44 KLIX 192337
TAFMCB
TAF
KMCB 192337Z 2000/2024 00000KT P6SM OVC060
     FM200500 15004KT P6SM BKN120
     FM201400 14004KT P6SM BKN090
     FM201800 16008KT P6SM BKN060=

USA.gov is the U.S. government's official web portal to all federal, state and local government web resources and services.